sensor_id;sensor_type;location;lat;lon;timestamp;P1;durP1;ratioP1;P2;durP2;ratioP2
54881;SDS011;40775;51.448;4.742;2023-10-31T00:01:21;2.60;;;0.50;;
54881;SDS011;40775;51.448;4.742;2023-10-31T00:03:48;0.90;;;0.45;;
54881;SDS011;40775;51.448;4.742;2023-10-31T00:06:15;1.30;;;0.40;;
54881;SDS011;40775;51.448;4.742;2023-10-31T00:08:42;0.95;;;0.45;;
54881;SDS011;40775;51.448;4.742;2023-10-31T00:11:09;0.70;;;0.40;;
54881;SDS011;40775;51.448;4.742;2023-10-31T00:13:37;2.40;;;0.50;;
54881;SDS011;40775;51.448;4.742;2023-10-31T00:16:04;2.25;;;0.60;;
54881;SDS011;40775;51.448;4.742;2023-10-31T00:18:31;1.25;;;0.38;;
54881;SDS011;40775;51.448;4.742;2023-10-31T00:20:58;1.75;;;0.52;;
54881;SDS011;40775;51.448;4.742;2023-10-31T00:23:25;1.73;;;0.50;;
54881;SDS011;40775;51.448;4.742;2023-10-31T00:25:52;1.77;;;0.60;;
54881;SDS011;40775;51.448;4.742;2023-10-31T00:28:20;3.17;;;0.50;;
54881;SDS011;40775;51.448;4.742;2023-10-31T00:30:47;1.00;;;0.40;;
54881;SDS011;40775;51.448;4.742;2023-10-31T00:33:14;3.13;;;0.75;;
54881;SDS011;40775;51.448;4.742;2023-10-31T00:35:41;2.00;;;0.60;;
54881;SDS011;40775;51.448;4.742;2023-10-31T00:38:08;1.85;;;0.85;;
54881;SDS011;40775;51.448;4.742;2023-10-31T00:40:35;1.98;;;0.90;;
54881;SDS011;40775;51.448;4.742;2023-10-31T00:43:02;1.80;;;0.75;;
54881;SDS011;40775;51.448;4.742;2023-10-31T00:45:29;1.77;;;0.90;;
54881;SDS011;40775;51.448;4.742;2023-10-31T00:47:56;2.85;;;1.10;;
54881;SDS011;40775;51.448;4.742;2023-10-31T00:50:23;1.60;;;0.70;;
54881;SDS011;40775;51.448;4.742;2023-10-31T00:52:50;3.28;;;1.20;;
54881;SDS011;40775;51.448;4.742;2023-10-31T00:55:17;2.40;;;0.90;;
54881;SDS011;40775;51.448;4.742;2023-10-31T00:57:44;2.45;;;1.20;;
54881;SDS011;40775;51.448;4.742;2023-10-31T01:00:11;2.80;;;1.30;;
54881;SDS011;40775;51.448;4.742;2023-10-31T01:02:39;3.67;;;1.73;;
54881;SDS011;40775;51.448;4.742;2023-10-31T01:05:06;2.38;;;1.10;;
54881;SDS011;40775;51.448;4.742;2023-10-31T01:07:34;3.92;;;1.60;;
54881;SDS011;40775;51.448;4.742;2023-10-31T01:10:02;1.67;;;0.85;;
54881;SDS011;40775;51.448;4.742;2023-10-31T01:12:30;4.03;;;1.70;;
54881;SDS011;40775;51.448;4.742;2023-10-31T01:14:57;4.28;;;1.90;;
54881;SDS011;40775;51.448;4.742;2023-10-31T01:17:24;2.42;;;1.58;;
54881;SDS011;40775;51.448;4.742;2023-10-31T01:19:51;3.22;;;1.38;;
54881;SDS011;40775;51.448;4.742;2023-10-31T01:22:18;3.50;;;1.42;;
54881;SDS011;40775;51.448;4.742;2023-10-31T01:24:45;3.50;;;1.95;;
54881;SDS011;40775;51.448;4.742;2023-10-31T01:27:12;3.42;;;1.58;;
54881;SDS011;40775;51.448;4.742;2023-10-31T01:29:39;4.07;;;2.33;;
54881;SDS011;40775;51.448;4.742;2023-10-31T01:32:06;4.88;;;2.03;;
54881;SDS011;40775;51.448;4.742;2023-10-31T01:34:46;4.85;;;2.17;;
54881;SDS011;40775;51.448;4.742;2023-10-31T01:37:13;4.97;;;2.35;;
54881;SDS011;40775;51.448;4.742;2023-10-31T01:39:40;4.07;;;2.13;;
54881;SDS011;40775;51.448;4.742;2023-10-31T01:42:07;3.42;;;1.92;;
54881;SDS011;40775;51.448;4.742;2023-10-31T01:44:34;5.38;;;2.22;;
54881;SDS011;40775;51.448;4.742;2023-10-31T01:47:01;6.03;;;2.53;;
54881;SDS011;40775;51.448;4.742;2023-10-31T01:49:28;5.28;;;2.63;;
54881;SDS011;40775;51.448;4.742;2023-10-31T01:51:55;5.07;;;2.83;;
54881;SDS011;40775;51.448;4.742;2023-10-31T01:54:22;4.75;;;2.50;;
54881;SDS011;40775;51.448;4.742;2023-10-31T01:56:49;5.15;;;2.40;;
54881;SDS011;40775;51.448;4.742;2023-10-31T01:59:20;6.18;;;2.88;;
54881;SDS011;40775;51.448;4.742;2023-10-31T02:01:47;6.43;;;3.47;;
54881;SDS011;40775;51.448;4.742;2023-10-31T02:04:15;8.63;;;3.85;;
54881;SDS011;40775;51.448;4.742;2023-10-31T02:06:42;7.53;;;3.55;;
54881;SDS011;40775;51.448;4.742;2023-10-31T02:09:09;5.80;;;3.45;;
54881;SDS011;40775;51.448;4.742;2023-10-31T02:11:37;5.95;;;3.35;;
54881;SDS011;40775;51.448;4.742;2023-10-31T02:14:04;7.40;;;3.50;;
54881;SDS011;40775;51.448;4.742;2023-10-31T02:16:31;8.15;;;3.60;;
54881;SDS011;40775;51.448;4.742;2023-10-31T02:18:58;5.43;;;3.75;;
54881;SDS011;40775;51.448;4.742;2023-10-31T02:21:25;8.25;;;3.65;;
54881;SDS011;40775;51.448;4.742;2023-10-31T02:23:57;7.82;;;4.13;;
54881;SDS011;40775;51.448;4.742;2023-10-31T02:26:33;6.80;;;3.90;;
54881;SDS011;40775;51.448;4.742;2023-10-31T02:29:01;8.70;;;4.65;;
54881;SDS011;40775;51.448;4.742;2023-10-31T02:31:29;7.97;;;4.28;;
54881;SDS011;40775;51.448;4.742;2023-10-31T02:33:56;7.88;;;4.22;;
54881;SDS011;40775;51.448;4.742;2023-10-31T02:36:23;10.25;;;3.85;;
54881;SDS011;40775;51.448;4.742;2023-10-31T02:38:50;8.43;;;3.85;;
54881;SDS011;40775;51.448;4.742;2023-10-31T02:41:17;7.43;;;3.85;;
54881;SDS011;40775;51.448;4.742;2023-10-31T02:43:44;7.75;;;4.20;;
54881;SDS011;40775;51.448;4.742;2023-10-31T02:46:12;9.52;;;4.65;;
54881;SDS011;40775;51.448;4.742;2023-10-31T02:48:41;7.90;;;4.07;;
54881;SDS011;40775;51.448;4.742;2023-10-31T02:51:08;7.25;;;4.00;;
54881;SDS011;40775;51.448;4.742;2023-10-31T02:53:35;7.35;;;4.30;;
54881;SDS011;40775;51.448;4.742;2023-10-31T02:56:03;6.28;;;4.18;;
54881;SDS011;40775;51.448;4.742;2023-10-31T02:58:30;7.72;;;4.38;;
54881;SDS011;40775;51.448;4.742;2023-10-31T03:00:57;6.25;;;4.07;;
54881;SDS011;40775;51.448;4.742;2023-10-31T03:03:24;8.98;;;4.45;;
54881;SDS011;40775;51.448;4.742;2023-10-31T03:05:51;7.70;;;3.90;;
54881;SDS011;40775;51.448;4.742;2023-10-31T03:08:18;7.47;;;4.30;;
54881;SDS011;40775;51.448;4.742;2023-10-31T03:10:48;8.50;;;4.90;;
54881;SDS011;40775;51.448;4.742;2023-10-31T03:13:18;8.27;;;4.63;;
54881;SDS011;40775;51.448;4.742;2023-10-31T03:15:46;9.18;;;4.03;;
54881;SDS011;40775;51.448;4.742;2023-10-31T03:18:14;7.60;;;4.10;;
54881;SDS011;40775;51.448;4.742;2023-10-31T03:20:43;7.63;;;4.18;;
54881;SDS011;40775;51.448;4.742;2023-10-31T03:23:14;7.55;;;4.45;;
54881;SDS011;40775;51.448;4.742;2023-10-31T03:25:41;7.63;;;4.43;;
54881;SDS011;40775;51.448;4.742;2023-10-31T03:28:17;8.07;;;4.63;;
54881;SDS011;40775;51.448;4.742;2023-10-31T03:30:49;7.40;;;4.15;;
54881;SDS011;40775;51.448;4.742;2023-10-31T03:33:17;7.97;;;4.03;;
54881;SDS011;40775;51.448;4.742;2023-10-31T03:35:44;6.60;;;3.67;;
54881;SDS011;40775;51.448;4.742;2023-10-31T03:38:12;7.18;;;4.00;;
54881;SDS011;40775;51.448;4.742;2023-10-31T03:40:40;6.60;;;4.00;;
54881;SDS011;40775;51.448;4.742;2023-10-31T03:43:08;7.95;;;3.65;;
54881;SDS011;40775;51.448;4.742;2023-10-31T03:45:34;6.63;;;4.05;;
54881;SDS011;40775;51.448;4.742;2023-10-31T03:48:01;7.25;;;4.13;;
54881;SDS011;40775;51.448;4.742;2023-10-31T03:50:29;6.10;;;4.00;;
54881;SDS011;40775;51.448;4.742;2023-10-31T03:52:56;6.80;;;3.80;;
54881;SDS011;40775;51.448;4.742;2023-10-31T03:55:23;6.72;;;3.58;;
54881;SDS011;40775;51.448;4.742;2023-10-31T03:57:50;5.38;;;3.05;;
54881;SDS011;40775;51.448;4.742;2023-10-31T04:00:17;6.13;;;3.65;;
54881;SDS011;40775;51.448;4.742;2023-10-31T04:02:44;7.65;;;3.95;;
54881;SDS011;40775;51.448;4.742;2023-10-31T04:05:11;7.28;;;3.88;;
54881;SDS011;40775;51.448;4.742;2023-10-31T04:07:38;5.90;;;3.30;;
54881;SDS011;40775;51.448;4.742;2023-10-31T04:10:05;6.35;;;4.05;;
54881;SDS011;40775;51.448;4.742;2023-10-31T04:12:33;6.63;;;3.63;;
54881;SDS011;40775;51.448;4.742;2023-10-31T04:15:01;5.85;;;3.53;;
54881;SDS011;40775;51.448;4.742;2023-10-31T04:17:29;7.15;;;3.53;;
54881;SDS011;40775;51.448;4.742;2023-10-31T04:19:56;6.25;;;3.63;;
54881;SDS011;40775;51.448;4.742;2023-10-31T04:22:23;6.28;;;3.30;;
54881;SDS011;40775;51.448;4.742;2023-10-31T04:24:50;6.50;;;3.58;;
54881;SDS011;40775;51.448;4.742;2023-10-31T04:27:17;8.77;;;3.42;;
54881;SDS011;40775;51.448;4.742;2023-10-31T04:29:44;5.65;;;3.17;;
54881;SDS011;40775;51.448;4.742;2023-10-31T04:32:12;6.35;;;3.22;;
54881;SDS011;40775;51.448;4.742;2023-10-31T04:34:39;6.82;;;3.33;;
54881;SDS011;40775;51.448;4.742;2023-10-31T04:37:06;6.05;;;3.20;;
54881;SDS011;40775;51.448;4.742;2023-10-31T04:39:33;6.22;;;3.15;;
54881;SDS011;40775;51.448;4.742;2023-10-31T04:42:00;6.07;;;3.05;;
54881;SDS011;40775;51.448;4.742;2023-10-31T04:44:27;5.97;;;3.13;;
54881;SDS011;40775;51.448;4.742;2023-10-31T04:46:53;5.97;;;3.42;;
54881;SDS011;40775;51.448;4.742;2023-10-31T04:49:21;5.47;;;3.08;;
54881;SDS011;40775;51.448;4.742;2023-10-31T04:51:48;5.13;;;2.65;;
54881;SDS011;40775;51.448;4.742;2023-10-31T04:54:15;4.78;;;2.55;;
54881;SDS011;40775;51.448;4.742;2023-10-31T04:56:42;5.93;;;2.83;;
54881;SDS011;40775;51.448;4.742;2023-10-31T04:59:09;4.53;;;1.95;;
54881;SDS011;40775;51.448;4.742;2023-10-31T05:01:36;3.38;;;1.88;;
54881;SDS011;40775;51.448;4.742;2023-10-31T05:04:03;4.20;;;2.17;;
54881;SDS011;40775;51.448;4.742;2023-10-31T05:06:38;4.43;;;2.50;;
54881;SDS011;40775;51.448;4.742;2023-10-31T05:09:05;5.88;;;2.67;;
54881;SDS011;40775;51.448;4.742;2023-10-31T05:11:33;4.85;;;2.08;;
54881;SDS011;40775;51.448;4.742;2023-10-31T05:14:00;4.75;;;2.45;;
54881;SDS011;40775;51.448;4.742;2023-10-31T05:16:27;4.45;;;2.38;;
54881;SDS011;40775;51.448;4.742;2023-10-31T05:18:54;4.60;;;2.40;;
54881;SDS011;40775;51.448;4.742;2023-10-31T05:21:21;5.00;;;2.58;;
54881;SDS011;40775;51.448;4.742;2023-10-31T05:23:49;5.80;;;2.67;;
54881;SDS011;40775;51.448;4.742;2023-10-31T05:26:16;4.57;;;1.95;;
54881;SDS011;40775;51.448;4.742;2023-10-31T05:28:43;4.03;;;1.88;;
54881;SDS011;40775;51.448;4.742;2023-10-31T05:31:10;5.88;;;1.88;;
54881;SDS011;40775;51.448;4.742;2023-10-31T05:33:41;5.18;;;2.35;;
54881;SDS011;40775;51.448;4.742;2023-10-31T05:36:17;5.22;;;2.28;;
54881;SDS011;40775;51.448;4.742;2023-10-31T05:38:48;4.68;;;2.40;;
54881;SDS011;40775;51.448;4.742;2023-10-31T05:41:15;3.83;;;2.13;;
54881;SDS011;40775;51.448;4.742;2023-10-31T05:43:42;4.57;;;2.92;;
54881;SDS011;40775;51.448;4.742;2023-10-31T05:46:10;4.05;;;1.67;;
54881;SDS011;40775;51.448;4.742;2023-10-31T05:48:37;4.35;;;2.33;;
54881;SDS011;40775;51.448;4.742;2023-10-31T05:51:15;3.92;;;2.58;;
54881;SDS011;40775;51.448;4.742;2023-10-31T05:53:44;4.63;;;2.25;;
54881;SDS011;40775;51.448;4.742;2023-10-31T05:56:13;4.18;;;1.90;;
54881;SDS011;40775;51.448;4.742;2023-10-31T05:58:42;4.45;;;2.47;;
54881;SDS011;40775;51.448;4.742;2023-10-31T06:01:10;4.50;;;2.08;;
54881;SDS011;40775;51.448;4.742;2023-10-31T06:03:37;3.15;;;1.85;;
54881;SDS011;40775;51.448;4.742;2023-10-31T06:06:06;3.75;;;2.03;;
54881;SDS011;40775;51.448;4.742;2023-10-31T06:08:34;4.47;;;2.25;;
54881;SDS011;40775;51.448;4.742;2023-10-31T06:11:02;4.75;;;2.42;;
54881;SDS011;40775;51.448;4.742;2023-10-31T06:13:30;4.18;;;1.70;;
54881;SDS011;40775;51.448;4.742;2023-10-31T06:15:58;3.22;;;1.80;;
54881;SDS011;40775;51.448;4.742;2023-10-31T06:18:27;3.30;;;2.05;;
54881;SDS011;40775;51.448;4.742;2023-10-31T06:20:56;3.92;;;1.98;;
54881;SDS011;40775;51.448;4.742;2023-10-31T06:23:24;2.67;;;1.70;;
54881;SDS011;40775;51.448;4.742;2023-10-31T06:25:55;3.50;;;1.85;;
54881;SDS011;40775;51.448;4.742;2023-10-31T06:28:31;2.90;;;1.60;;
54881;SDS011;40775;51.448;4.742;2023-10-31T06:31:05;3.13;;;1.70;;
54881;SDS011;40775;51.448;4.742;2023-10-31T06:33:32;3.03;;;1.75;;
54881;SDS011;40775;51.448;4.742;2023-10-31T06:36:02;4.30;;;2.00;;
54881;SDS011;40775;51.448;4.742;2023-10-31T06:38:30;4.55;;;1.90;;
54881;SDS011;40775;51.448;4.742;2023-10-31T06:40:58;4.35;;;2.13;;
54881;SDS011;40775;51.448;4.742;2023-10-31T06:43:35;3.22;;;1.58;;
54881;SDS011;40775;51.448;4.742;2023-10-31T06:46:02;6.72;;;4.85;;
54881;SDS011;40775;51.448;4.742;2023-10-31T06:48:31;6.68;;;3.85;;
54881;SDS011;40775;51.448;4.742;2023-10-31T06:50:58;4.88;;;2.03;;
54881;SDS011;40775;51.448;4.742;2023-10-31T06:53:25;2.30;;;1.45;;
54881;SDS011;40775;51.448;4.742;2023-10-31T06:55:52;2.92;;;1.65;;
54881;SDS011;40775;51.448;4.742;2023-10-31T06:58:19;2.55;;;1.30;;
54881;SDS011;40775;51.448;4.742;2023-10-31T07:00:46;1.48;;;0.90;;
54881;SDS011;40775;51.448;4.742;2023-10-31T07:03:14;3.40;;;0.90;;
54881;SDS011;40775;51.448;4.742;2023-10-31T07:05:42;1.65;;;1.02;;
54881;SDS011;40775;51.448;4.742;2023-10-31T07:08:09;3.47;;;1.40;;
54881;SDS011;40775;51.448;4.742;2023-10-31T07:10:36;1.85;;;1.30;;
54881;SDS011;40775;51.448;4.742;2023-10-31T07:13:03;1.50;;;1.17;;
54881;SDS011;40775;51.448;4.742;2023-10-31T07:15:33;1.90;;;1.00;;
54881;SDS011;40775;51.448;4.742;2023-10-31T07:18:05;1.07;;;0.67;;
54881;SDS011;40775;51.448;4.742;2023-10-31T07:20:35;2.60;;;1.05;;
54881;SDS011;40775;51.448;4.742;2023-10-31T07:23:02;1.02;;;0.90;;
54881;SDS011;40775;51.448;4.742;2023-10-31T07:25:29;2.88;;;1.25;;
54881;SDS011;40775;51.448;4.742;2023-10-31T07:27:56;2.00;;;0.70;;
54881;SDS011;40775;51.448;4.742;2023-10-31T07:30:23;1.65;;;0.93;;
54881;SDS011;40775;51.448;4.742;2023-10-31T07:32:50;2.13;;;0.75;;
54881;SDS011;40775;51.448;4.742;2023-10-31T07:35:18;3.53;;;1.50;;
54881;SDS011;40775;51.448;4.742;2023-10-31T07:37:46;2.50;;;1.40;;
54881;SDS011;40775;51.448;4.742;2023-10-31T07:40:13;2.15;;;1.10;;
54881;SDS011;40775;51.448;4.742;2023-10-31T07:42:40;2.35;;;1.20;;
54881;SDS011;40775;51.448;4.742;2023-10-31T07:45:07;3.55;;;1.30;;
54881;SDS011;40775;51.448;4.742;2023-10-31T07:47:35;2.65;;;1.80;;
54881;SDS011;40775;51.448;4.742;2023-10-31T07:50:03;2.85;;;1.58;;
54881;SDS011;40775;51.448;4.742;2023-10-31T07:52:31;2.83;;;1.60;;
54881;SDS011;40775;51.448;4.742;2023-10-31T07:54:58;2.42;;;1.50;;
54881;SDS011;40775;51.448;4.742;2023-10-31T07:57:25;3.92;;;2.03;;
54881;SDS011;40775;51.448;4.742;2023-10-31T07:59:52;3.42;;;1.52;;
54881;SDS011;40775;51.448;4.742;2023-10-31T08:02:19;3.15;;;1.83;;
54881;SDS011;40775;51.448;4.742;2023-10-31T08:04:46;4.28;;;1.73;;
54881;SDS011;40775;51.448;4.742;2023-10-31T08:07:13;5.78;;;2.30;;
54881;SDS011;40775;51.448;4.742;2023-10-31T08:09:40;3.15;;;2.00;;
54881;SDS011;40775;51.448;4.742;2023-10-31T08:12:07;4.45;;;2.40;;
54881;SDS011;40775;51.448;4.742;2023-10-31T08:14:34;4.55;;;2.53;;
54881;SDS011;40775;51.448;4.742;2023-10-31T08:17:02;5.25;;;2.60;;
54881;SDS011;40775;51.448;4.742;2023-10-31T08:19:29;5.22;;;2.55;;
54881;SDS011;40775;51.448;4.742;2023-10-31T08:21:56;5.05;;;2.58;;
54881;SDS011;40775;51.448;4.742;2023-10-31T08:24:24;6.38;;;3.40;;
54881;SDS011;40775;51.448;4.742;2023-10-31T08:26:51;5.50;;;2.70;;
54881;SDS011;40775;51.448;4.742;2023-10-31T08:29:18;6.07;;;3.10;;
54881;SDS011;40775;51.448;4.742;2023-10-31T08:31:46;6.53;;;3.42;;
54881;SDS011;40775;51.448;4.742;2023-10-31T08:34:13;6.68;;;3.30;;
54881;SDS011;40775;51.448;4.742;2023-10-31T08:36:40;9.40;;;4.18;;
54881;SDS011;40775;51.448;4.742;2023-10-31T08:39:07;6.78;;;3.17;;
54881;SDS011;40775;51.448;4.742;2023-10-31T08:41:48;8.73;;;4.00;;
54881;SDS011;40775;51.448;4.742;2023-10-31T08:44:20;6.25;;;3.38;;
54881;SDS011;40775;51.448;4.742;2023-10-31T08:46:48;6.78;;;3.95;;
54881;SDS011;40775;51.448;4.742;2023-10-31T08:49:15;9.55;;;4.43;;
54881;SDS011;40775;51.448;4.742;2023-10-31T08:51:44;6.10;;;3.72;;
54881;SDS011;40775;51.448;4.742;2023-10-31T08:54:11;8.80;;;4.53;;
54881;SDS011;40775;51.448;4.742;2023-10-31T08:56:38;7.55;;;3.97;;
54881;SDS011;40775;51.448;4.742;2023-10-31T08:59:05;8.57;;;4.38;;
54881;SDS011;40775;51.448;4.742;2023-10-31T09:01:32;7.57;;;4.07;;
54881;SDS011;40775;51.448;4.742;2023-10-31T09:04:00;7.88;;;4.63;;
54881;SDS011;40775;51.448;4.742;2023-10-31T09:06:27;8.23;;;4.72;;
54881;SDS011;40775;51.448;4.742;2023-10-31T09:08:54;9.40;;;4.65;;
54881;SDS011;40775;51.448;4.742;2023-10-31T09:11:21;7.47;;;4.22;;
54881;SDS011;40775;51.448;4.742;2023-10-31T09:13:48;9.45;;;4.78;;
54881;SDS011;40775;51.448;4.742;2023-10-31T09:16:15;8.70;;;4.55;;
54881;SDS011;40775;51.448;4.742;2023-10-31T09:18:42;7.55;;;4.07;;
54881;SDS011;40775;51.448;4.742;2023-10-31T09:21:09;8.48;;;5.13;;
54881;SDS011;40775;51.448;4.742;2023-10-31T09:23:36;8.73;;;4.43;;
54881;SDS011;40775;51.448;4.742;2023-10-31T09:26:03;8.13;;;4.45;;
54881;SDS011;40775;51.448;4.742;2023-10-31T09:28:31;8.23;;;4.35;;
54881;SDS011;40775;51.448;4.742;2023-10-31T09:30:58;6.85;;;4.05;;
54881;SDS011;40775;51.448;4.742;2023-10-31T09:33:27;8.15;;;4.63;;
54881;SDS011;40775;51.448;4.742;2023-10-31T09:35:54;8.23;;;4.60;;
54881;SDS011;40775;51.448;4.742;2023-10-31T09:38:21;9.25;;;5.13;;
54881;SDS011;40775;51.448;4.742;2023-10-31T09:40:48;7.90;;;4.07;;
54881;SDS011;40775;51.448;4.742;2023-10-31T09:43:16;7.55;;;4.38;;
54881;SDS011;40775;51.448;4.742;2023-10-31T09:45:43;9.80;;;5.05;;
54881;SDS011;40775;51.448;4.742;2023-10-31T09:48:11;10.27;;;4.97;;
54881;SDS011;40775;51.448;4.742;2023-10-31T09:50:39;7.55;;;4.30;;
54881;SDS011;40775;51.448;4.742;2023-10-31T09:53:08;9.43;;;4.65;;
54881;SDS011;40775;51.448;4.742;2023-10-31T09:55:35;8.75;;;4.63;;
54881;SDS011;40775;51.448;4.742;2023-10-31T09:58:04;7.90;;;4.28;;
54881;SDS011;40775;51.448;4.742;2023-10-31T10:00:31;7.07;;;4.32;;
54881;SDS011;40775;51.448;4.742;2023-10-31T10:02:59;7.55;;;4.35;;
54881;SDS011;40775;51.448;4.742;2023-10-31T10:05:26;6.95;;;4.10;;
54881;SDS011;40775;51.448;4.742;2023-10-31T10:07:55;7.50;;;4.30;;
54881;SDS011;40775;51.448;4.742;2023-10-31T10:10:22;7.25;;;4.05;;
54881;SDS011;40775;51.448;4.742;2023-10-31T10:12:53;6.70;;;4.10;;
54881;SDS011;40775;51.448;4.742;2023-10-31T10:15:20;7.78;;;4.28;;
54881;SDS011;40775;51.448;4.742;2023-10-31T10:17:50;7.45;;;3.72;;
54881;SDS011;40775;51.448;4.742;2023-10-31T10:20:18;8.02;;;4.20;;
54881;SDS011;40775;51.448;4.742;2023-10-31T10:22:46;8.95;;;4.75;;
54881;SDS011;40775;51.448;4.742;2023-10-31T10:25:14;7.43;;;4.68;;
54881;SDS011;40775;51.448;4.742;2023-10-31T10:27:45;7.80;;;4.30;;
54881;SDS011;40775;51.448;4.742;2023-10-31T10:30:13;8.70;;;4.25;;
54881;SDS011;40775;51.448;4.742;2023-10-31T10:32:41;7.47;;;4.82;;
54881;SDS011;40775;51.448;4.742;2023-10-31T10:35:08;6.50;;;4.32;;
54881;SDS011;40775;51.448;4.742;2023-10-31T10:37:39;7.45;;;4.75;;
54881;SDS011;40775;51.448;4.742;2023-10-31T10:40:06;6.97;;;4.63;;
54881;SDS011;40775;51.448;4.742;2023-10-31T10:42:45;7.40;;;4.50;;
54881;SDS011;40775;51.448;4.742;2023-10-31T10:45:15;6.90;;;4.18;;
54881;SDS011;40775;51.448;4.742;2023-10-31T10:47:45;8.65;;;4.97;;
54881;SDS011;40775;51.448;4.742;2023-10-31T10:50:19;9.88;;;5.05;;
54881;SDS011;40775;51.448;4.742;2023-10-31T10:53:01;8.65;;;5.00;;
54881;SDS011;40775;51.448;4.742;2023-10-31T10:55:43;7.70;;;5.03;;
54881;SDS011;40775;51.448;4.742;2023-10-31T10:58:20;7.93;;;4.43;;
54881;SDS011;40775;51.448;4.742;2023-10-31T11:00:54;9.50;;;4.90;;
54881;SDS011;40775;51.448;4.742;2023-10-31T11:03:22;8.02;;;4.13;;
54881;SDS011;40775;51.448;4.742;2023-10-31T11:05:52;8.20;;;4.32;;
54881;SDS011;40775;51.448;4.742;2023-10-31T11:08:20;8.20;;;4.72;;
54881;SDS011;40775;51.448;4.742;2023-10-31T11:10:49;7.10;;;4.35;;
54881;SDS011;40775;51.448;4.742;2023-10-31T11:13:20;7.90;;;4.90;;
54881;SDS011;40775;51.448;4.742;2023-10-31T11:15:51;8.68;;;4.65;;
54881;SDS011;40775;51.448;4.742;2023-10-31T11:18:26;7.07;;;4.55;;
54881;SDS011;40775;51.448;4.742;2023-10-31T11:20:54;8.88;;;4.90;;
54881;SDS011;40775;51.448;4.742;2023-10-31T11:23:21;6.85;;;3.60;;
54881;SDS011;40775;51.448;4.742;2023-10-31T11:25:51;9.07;;;5.25;;
54881;SDS011;40775;51.448;4.742;2023-10-31T11:28:19;8.52;;;4.93;;
54881;SDS011;40775;51.448;4.742;2023-10-31T11:30:49;7.07;;;4.38;;
54881;SDS011;40775;51.448;4.742;2023-10-31T11:33:20;7.50;;;4.63;;
54881;SDS011;40775;51.448;4.742;2023-10-31T11:35:50;7.72;;;4.75;;
54881;SDS011;40775;51.448;4.742;2023-10-31T11:38:32;8.38;;;4.53;;
54881;SDS011;40775;51.448;4.742;2023-10-31T11:41:04;10.88;;;5.00;;
54881;SDS011;40775;51.448;4.742;2023-10-31T11:46:05;9.02;;;5.00;;
54881;SDS011;40775;51.448;4.742;2023-10-31T11:48:54;8.52;;;4.90;;
54881;SDS011;40775;51.448;4.742;2023-10-31T11:51:23;6.70;;;3.78;;
54881;SDS011;40775;51.448;4.742;2023-10-31T11:53:51;7.05;;;4.18;;
54881;SDS011;40775;51.448;4.742;2023-10-31T11:56:19;5.68;;;3.60;;
54881;SDS011;40775;51.448;4.742;2023-10-31T11:59:03;7.80;;;3.67;;
54881;SDS011;40775;51.448;4.742;2023-10-31T12:01:33;6.78;;;3.60;;
54881;SDS011;40775;51.448;4.742;2023-10-31T12:04:10;6.65;;;3.13;;
54881;SDS011;40775;51.448;4.742;2023-10-31T12:06:57;8.02;;;3.20;;
54881;SDS011;40775;51.448;4.742;2023-10-31T12:09:26;4.57;;;2.83;;
54881;SDS011;40775;51.448;4.742;2023-10-31T12:11:56;5.10;;;2.70;;
54881;SDS011;40775;51.448;4.742;2023-10-31T12:14:23;6.38;;;3.75;;
54881;SDS011;40775;51.448;4.742;2023-10-31T12:16:53;5.53;;;2.60;;
54881;SDS011;40775;51.448;4.742;2023-10-31T12:19:21;4.68;;;2.60;;
54881;SDS011;40775;51.448;4.742;2023-10-31T12:21:48;4.60;;;2.60;;
54881;SDS011;40775;51.448;4.742;2023-10-31T12:24:17;4.45;;;2.45;;
54881;SDS011;40775;51.448;4.742;2023-10-31T12:26:45;3.80;;;2.60;;
54881;SDS011;40775;51.448;4.742;2023-10-31T12:29:17;7.20;;;3.13;;
54881;SDS011;40775;51.448;4.742;2023-10-31T12:34:20;4.88;;;2.47;;
54881;SDS011;40775;51.448;4.742;2023-10-31T12:36:50;3.78;;;2.28;;
54881;SDS011;40775;51.448;4.742;2023-10-31T12:39:20;4.57;;;2.42;;
54881;SDS011;40775;51.448;4.742;2023-10-31T12:41:52;4.43;;;2.45;;
54881;SDS011;40775;51.448;4.742;2023-10-31T12:44:23;4.65;;;2.25;;
54881;SDS011;40775;51.448;4.742;2023-10-31T12:46:53;5.95;;;2.63;;
54881;SDS011;40775;51.448;4.742;2023-10-31T12:49:20;5.45;;;2.33;;
54881;SDS011;40775;51.448;4.742;2023-10-31T12:51:57;3.97;;;2.10;;
54881;SDS011;40775;51.448;4.742;2023-10-31T12:54:31;4.20;;;2.08;;
54881;SDS011;40775;51.448;4.742;2023-10-31T12:57:06;4.28;;;2.22;;
54881;SDS011;40775;51.448;4.742;2023-10-31T12:59:35;4.13;;;2.23;;
54881;SDS011;40775;51.448;4.742;2023-10-31T13:02:06;4.17;;;2.30;;
54881;SDS011;40775;51.448;4.742;2023-10-31T13:04:35;3.75;;;1.80;;
54881;SDS011;40775;51.448;4.742;2023-10-31T13:07:04;3.33;;;1.83;;
54881;SDS011;40775;51.448;4.742;2023-10-31T13:09:35;3.15;;;1.95;;
54881;SDS011;40775;51.448;4.742;2023-10-31T13:12:05;2.90;;;1.58;;
54881;SDS011;40775;51.448;4.742;2023-10-31T13:14:34;4.30;;;2.00;;
54881;SDS011;40775;51.448;4.742;2023-10-31T13:17:03;3.65;;;1.88;;
54881;SDS011;40775;51.448;4.742;2023-10-31T13:19:31;3.72;;;1.95;;
54881;SDS011;40775;51.448;4.742;2023-10-31T13:21:58;3.88;;;1.98;;
54881;SDS011;40775;51.448;4.742;2023-10-31T13:24:26;3.60;;;1.83;;
54881;SDS011;40775;51.448;4.742;2023-10-31T13:26:53;3.40;;;1.85;;
54881;SDS011;40775;51.448;4.742;2023-10-31T13:29:20;3.75;;;1.95;;
54881;SDS011;40775;51.448;4.742;2023-10-31T13:31:49;3.45;;;1.77;;
54881;SDS011;40775;51.448;4.742;2023-10-31T13:34:16;3.30;;;2.08;;
54881;SDS011;40775;51.448;4.742;2023-10-31T13:36:44;3.22;;;1.42;;
54881;SDS011;40775;51.448;4.742;2023-10-31T13:39:11;4.50;;;1.60;;
54881;SDS011;40775;51.448;4.742;2023-10-31T13:41:38;3.13;;;1.58;;
54881;SDS011;40775;51.448;4.742;2023-10-31T13:44:05;3.58;;;1.70;;
54881;SDS011;40775;51.448;4.742;2023-10-31T13:46:33;2.92;;;1.55;;
54881;SDS011;40775;51.448;4.742;2023-10-31T13:49:00;1.63;;;1.10;;
54881;SDS011;40775;51.448;4.742;2023-10-31T13:51:27;2.92;;;1.38;;
54881;SDS011;40775;51.448;4.742;2023-10-31T13:53:54;2.53;;;1.40;;
54881;SDS011;40775;51.448;4.742;2023-10-31T13:56:21;3.40;;;1.90;;
54881;SDS011;40775;51.448;4.742;2023-10-31T13:58:48;3.38;;;1.33;;
54881;SDS011;40775;51.448;4.742;2023-10-31T14:01:15;3.00;;;1.48;;
54881;SDS011;40775;51.448;4.742;2023-10-31T14:03:42;2.88;;;1.70;;
54881;SDS011;40775;51.448;4.742;2023-10-31T14:06:11;5.53;;;1.52;;
54881;SDS011;40775;51.448;4.742;2023-10-31T14:08:38;3.72;;;1.48;;
54881;SDS011;40775;51.448;4.742;2023-10-31T14:11:05;3.25;;;1.45;;
54881;SDS011;40775;51.448;4.742;2023-10-31T14:13:37;2.85;;;1.40;;
54881;SDS011;40775;51.448;4.742;2023-10-31T14:16:05;3.45;;;1.42;;
54881;SDS011;40775;51.448;4.742;2023-10-31T14:18:32;2.28;;;1.25;;
54881;SDS011;40775;51.448;4.742;2023-10-31T14:21:00;3.67;;;1.50;;
54881;SDS011;40775;51.448;4.742;2023-10-31T14:23:27;5.50;;;1.77;;
54881;SDS011;40775;51.448;4.742;2023-10-31T14:25:54;3.10;;;1.30;;
54881;SDS011;40775;51.448;4.742;2023-10-31T14:28:21;3.75;;;1.50;;
54881;SDS011;40775;51.448;4.742;2023-10-31T14:30:48;2.22;;;1.10;;
54881;SDS011;40775;51.448;4.742;2023-10-31T14:33:15;2.10;;;1.35;;
54881;SDS011;40775;51.448;4.742;2023-10-31T14:35:42;3.10;;;1.40;;
54881;SDS011;40775;51.448;4.742;2023-10-31T14:38:09;4.13;;;1.45;;
54881;SDS011;40775;51.448;4.742;2023-10-31T14:40:36;3.42;;;1.67;;
54881;SDS011;40775;51.448;4.742;2023-10-31T14:43:03;3.75;;;1.88;;
54881;SDS011;40775;51.448;4.742;2023-10-31T14:45:30;2.05;;;1.08;;
54881;SDS011;40775;51.448;4.742;2023-10-31T14:47:57;1.83;;;1.00;;
54881;SDS011;40775;51.448;4.742;2023-10-31T14:50:24;2.20;;;1.20;;
54881;SDS011;40775;51.448;4.742;2023-10-31T14:52:51;3.58;;;1.52;;
54881;SDS011;40775;51.448;4.742;2023-10-31T14:55:19;1.75;;;0.98;;
54881;SDS011;40775;51.448;4.742;2023-10-31T14:57:46;2.53;;;1.10;;
54881;SDS011;40775;51.448;4.742;2023-10-31T15:00:13;3.38;;;1.13;;